Time,TemperatureF,DewpointF,PressureIn,WindDirection,WindDirectionDegrees,WindSpeedMPH,WindSpeedGustMPH,Humidity,HourlyPrecipIn,Conditions,Clouds,dailyrainin,SoftwareType,DateUTC
2013-06-30 00:00:00,64.6,56.1,29.92,NW,322,3.0,5.0,74,0.00,CLR,,0.00,WeatherDisplay:10.37,2013-06-30 05:00:00,
2013-06-30 00:10:00,64.6,56.1,29.92,NW,322,3.0,4.0,74,0.00,CLR,,0.00,WeatherDisplay:10.37,2013-06-30 05:10:00,
2013-06-30 00:15:00,64.6,56.1,29.93,NW,323,2.0,4.0,74,0.00,CLR,,0.00,WeatherDisplay:10.37,2013-06-30 05:15:00,
2013-06-30 00:20:00,64.5,56.0,29.93,NW,323,2.0,4.0,74,0.00,CLR,,0.00,WeatherDisplay:10.37,2013-06-30 05:20:00,
2013-06-30 00:25:00,64.6,56.1,29.93,NW,323,2.0,4.0,74,0.00,CLR,,0.00,WeatherDisplay:10.37,2013-06-30 05:25:00,
2013-06-30 00:30:00,64.4,56.3,29.93,NW,323,2.0,4.0,75,0.00,CLR,,0.00,WeatherDisplay:10.37,2013-06-30 05:30:00,
2013-06-30 00:35:00,64.4,56.3,29.93,NW,323,2.0,4.0,75,0.00,CLR,,0.00,WeatherDisplay:10.37,2013-06-30 05:35:00,
2013-06-30 00:40:00,64.4,56.3,29.93,NW,323,3.0,4.0,75,0.00,CLR,,0.00,WeatherDisplay:10.37,2013-06-30 05:40:00,
2013-06-30 00:50:00,64.4,56.3,29.93,NW,323,3.0,4.0,75,0.00,CLR,,0.00,WeatherDisplay:10.37,2013-06-30 05:50:00,
2013-06-30 00:55:00,64.4,56.3,29.93,NW,323,3.0,5.0,75,0.00,CLR,,0.00,WeatherDisplay:10.37,2013-06-30 05:55:00,
2013-06-30 01:00:00,64.4,56.3,29.93,NW,323,3.0,5.0,75,0.00,CLR,,0.00,WeatherDisplay:10.37,2013-06-30 06:00:00,
2013-06-30 01:10:00,64.1,56.4,29.93,NW,323,3.0,4.0,76,0.00,CLR,,0.00,WeatherDisplay:10.37,2013-06-30 06:10:00,
2013-06-30 01:15:00,63.9,56.2,29.93,NW,323,2.0,4.0,76,0.00,CLR,,0.00,WeatherDisplay:10.37,2013-06-30 06:15:00,
2013-06-30 01:20:00,63.8,56.0,29.93,NW,323,2.0,4.0,76,0.00,CLR,,0.00,WeatherDisplay:10.37,2013-06-30 06:20:00,
2013-06-30 01:30:00,63.5,55.8,29.93,NW,323,2.0,4.0,76,0.00,CLR,,0.00,WeatherDisplay:10.37,2013-06-30 06:30:00,
2013-06-30 01:40:00,63.4,55.7,29.93,NW,323,3.0,4.0,76,0.00,CLR,,0.00,WeatherDisplay:10.37,2013-06-30 06:40:00,
2013-06-30 01:50:00,63.1,55.5,29.93,NW,323,2.0,4.0,76,0.00,CLR,,0.00,WeatherDisplay:10.37,2013-06-30 06:50:00,
2013-06-30 01:55:00,63.1,55.4,29.93,NW,323,2.0,4.0,76,0.00,CLR,,0.00,WeatherDisplay:10.37,2013-06-30 06:55:00,
2013-06-30 02:00:00,63.0,55.3,29.93,NW,323,2.0,4.0,76,0.00,CLR,,0.00,WeatherDisplay:10.37,2013-06-30 07:00:00,
2013-06-30 02:10:00,62.9,55.2,29.93,NW,323,2.0,4.0,76,0.00,CLR,,0.00,WeatherDisplay:10.37,2013-06-30 07:10:00,
2013-06-30 02:15:00,62.8,55.1,29.93,NW,323,2.0,4.0,76,0.00,CLR,,0.00,WeatherDisplay:10.37,2013-06-30 07:15:00,
2013-06-30 02:20:00,62.7,55.4,29.94,NW,323,2.0,4.0,77,0.00,CLR,,0.00,WeatherDisplay:10.37,2013-06-30 07:20:00,
2013-06-30 02:30:00,62.3,55.0,29.94,NW,323,3.0,4.0,77,0.00,CLR,,0.00,WeatherDisplay:10.37,2013-06-30 07:30:00,
2013-06-30 02:40:00,61.8,54.5,29.94,NW,323,2.0,4.0,77,0.00,CLR,,0.00,WeatherDisplay:10.37,2013-06-30 07:40:00,
2013-06-30 02:45:00,61.9,54.6,29.94,NW,323,2.0,4.0,77,0.00,CLR,,0.00,WeatherDisplay:10.37,2013-06-30 07:45:00,
2013-06-30 02:50:00,61.9,54.3,29.93,NW,323,2.0,4.0,76,0.00,CLR,,0.00,WeatherDisplay:10.37,2013-06-30 07:50:00,
2013-06-30 03:00:00,61.9,54.2,29.93,NW,323,2.0,4.0,76,0.00,CLR,,0.00,WeatherDisplay:10.37,2013-06-30 08:00:00,
2013-06-30 03:10:00,61.6,54.3,29.94,NW,323,2.0,3.0,77,0.00,CLR,,0.00,WeatherDisplay:10.37,2013-06-30 08:10:00,
2013-06-30 03:20:00,61.1,54.2,29.94,NW,323,2.0,3.0,78,0.00,CLR,,0.00,WeatherDisplay:10.37,2013-06-30 08:20:00,
2013-06-30 03:30:00,60.8,54.2,29.94,NW,323,2.0,3.0,79,0.00,CLR,,0.00,WeatherDisplay:10.37,2013-06-30 08:30:00,
2013-06-30 03:40:00,60.7,54.1,29.94,NW,323,2.0,4.0,79,0.00,CLR,,0.00,WeatherDisplay:10.37,2013-06-30 08:40:00,
2013-06-30 03:50:00,60.6,54.1,29.95,NW,323,2.0,3.0,79,0.00,CLR,,0.00,WeatherDisplay:10.37,2013-06-30 08:50:00,
2013-06-30 03:55:00,60.5,54.0,29.95,NW,323,2.0,4.0,79,0.00,CLR,,0.00,WeatherDisplay:10.37,2013-06-30 08:55:00,
2013-06-30 04:00:00,60.5,53.9,29.95,NW,323,2.0,4.0,79,0.00,CLR,,0.00,WeatherDisplay:10.37,2013-06-30 09:00:00,
2013-06-30 04:10:00,60.4,53.9,29.95,NW,323,3.0,5.0,79,0.00,CLR,,0.00,WeatherDisplay:10.37,2013-06-30 09:10:00,
2013-06-30 04:20:00,60.1,53.6,29.95,NW,323,3.0,4.0,79,0.00,CLR,,0.00,WeatherDisplay:10.37,2013-06-30 09:20:00,
2013-06-30 04:30:00,59.9,53.7,29.95,NW,323,3.0,5.0,80,0.00,CLR,,0.00,WeatherDisplay:10.37,2013-06-30 09:30:00,
2013-06-30 04:40:00,60.2,54.0,29.95,NW,323,3.0,6.0,80,0.00,CLR,,0.00,WeatherDisplay:10.37,2013-06-30 09:40:00,
2013-06-30 04:45:00,60.3,53.7,29.95,NW,324,3.0,6.0,79,0.00,CLR,,0.00,WeatherDisplay:10.37,2013-06-30 09:45:00,
2013-06-30 04:55:00,60.4,53.5,29.95,NNW,332,3.0,6.0,78,0.00,CLR,,0.00,WeatherDisplay:10.37,2013-06-30 09:55:00,
2013-06-30 05:00:00,60.5,53.6,29.95,NNW,348,2.0,6.0,78,0.00,CLR,,0.00,WeatherDisplay:10.37,2013-06-30 10:00:00,
2013-06-30 05:10:00,60.5,53.6,29.96,North,357,3.0,6.0,78,0.00,CLR,,0.00,WeatherDisplay:10.37,2013-06-30 10:10:00,
2013-06-30 05:20:00,60.4,53.5,29.96,NNW,338,3.0,5.0,78,0.00,CLR,,0.00,WeatherDisplay:10.37,2013-06-30 10:20:00,
2013-06-30 05:25:00,60.4,53.5,29.96,NNW,337,3.0,4.0,78,0.00,CLR,,0.00,WeatherDisplay:10.37,2013-06-30 10:25:00,
2013-06-30 05:30:00,60.4,53.5,29.96,NNW,337,3.0,5.0,78,0.00,CLR,,0.00,WeatherDisplay:10.37,2013-06-30 10:30:00,
2013-06-30 05:35:00,60.4,53.5,29.96,NNW,337,2.0,4.0,78,0.00,CLR,,0.00,WeatherDisplay:10.37,2013-06-30 10:35:00,
2013-06-30 05:40:00,60.1,53.5,29.96,NNW,337,3.0,4.0,79,0.00,CLR,,0.00,WeatherDisplay:10.37,2013-06-30 10:40:00,
2013-06-30 05:45:00,59.9,53.3,29.97,NNW,338,3.0,5.0,79,0.00,CLR,,0.00,WeatherDisplay:10.37,2013-06-30 10:45:00,
2013-06-30 05:50:00,59.9,53.3,29.97,NNW,339,3.0,5.0,79,0.00,CLR,,0.00,WeatherDisplay:10.37,2013-06-30 10:50:00,
2013-06-30 05:55:00,59.7,53.6,29.97,NNW,339,3.0,5.0,80,0.00,CLR,,0.00,WeatherDisplay:10.37,2013-06-30 10:55:00,
2013-06-30 06:00:00,59.7,53.5,29.97,NNW,339,3.0,5.0,80,0.00,CLR,,0.00,WeatherDisplay:10.37,2013-06-30 11:00:00,
2013-06-30 06:10:00,59.3,53.4,29.98,NNW,339,2.0,4.0,81,0.00,CLR,,0.00,WeatherDisplay:10.37,2013-06-30 11:10:00,
2013-06-30 06:20:00,59.2,53.7,29.98,NNW,339,3.0,5.0,82,0.00,CLR,,0.00,WeatherDisplay:10.37,2013-06-30 11:20:00,
2013-06-30 06:30:00,59.4,53.9,29.99,NNW,339,3.0,4.0,82,0.00,CLR,,0.00,WeatherDisplay:10.37,2013-06-30 11:30:00,
2013-06-30 06:35:00,59.5,53.7,29.99,NNW,339,3.0,5.0,81,0.00,CLR,,0.00,WeatherDisplay:10.37,2013-06-30 11:35:00,
2013-06-30 06:40:00,59.7,53.9,29.99,NNW,339,3.0,5.0,81,0.00,CLR,,0.00,WeatherDisplay:10.37,2013-06-30 11:40:00,
2013-06-30 06:50:00,60.3,54.4,29.99,NNW,339,3.0,4.0,81,0.00,CLR,,0.00,WeatherDisplay:10.37,2013-06-30 11:50:00,
2013-06-30 07:00:00,61.3,54.7,29.99,NNW,339,5.0,6.0,79,0.00,CLR,,0.00,WeatherDisplay:10.37,2013-06-30 12:00:00,
2013-06-30 07:10:00,62.1,55.1,29.99,NNW,339,3.0,5.0,78,0.00,CLR,,0.00,WeatherDisplay:10.37,2013-06-30 12:10:00,
2013-06-30 07:15:00,62.4,55.1,29.99,NNW,340,3.0,5.0,77,0.00,CLR,,0.00,WeatherDisplay:10.37,2013-06-30 12:15:00,
2013-06-30 07:20:00,62.6,55.3,29.99,NNW,340,3.0,6.0,77,0.00,CLR,,0.00,WeatherDisplay:10.37,2013-06-30 12:20:00,
2013-06-30 07:25:00,62.9,55.3,29.99,NNW,338,3.0,6.0,76,0.00,CLR,,0.00,WeatherDisplay:10.37,2013-06-30 12:25:00,
2013-06-30 07:30:00,63.2,55.5,29.99,NNW,339,5.0,6.0,76,0.00,CLR,,0.00,WeatherDisplay:10.37,2013-06-30 12:30:00,
2013-06-30 07:40:00,63.9,55.8,29.99,NNW,347,5.0,7.0,75,0.00,CLR,,0.00,WeatherDisplay:10.37,2013-06-30 12:40:00,
2013-06-30 07:45:00,64.0,55.9,29.99,NNW,345,5.0,7.0,75,0.00,CLR,,0.00,WeatherDisplay:10.37,2013-06-30 12:45:00,
2013-06-30 07:55:00,64.4,55.9,30.00,NNW,343,5.0,7.0,74,0.00,CLR,,0.00,WeatherDisplay:10.37,2013-06-30 12:55:00,
2013-06-30 08:00:00,64.7,55.8,30.00,NNW,338,6.0,8.0,73,0.00,CLR,,0.00,WeatherDisplay:10.37,2013-06-30 13:00:00,
2013-06-30 08:10:00,65.8,56.9,30.01,North,353,3.0,8.0,73,0.00,CLR,,0.00,WeatherDisplay:10.37,2013-06-30 13:10:00,
2013-06-30 08:15:00,65.9,56.2,30.01,NNW,343,6.0,8.0,71,0.00,CLR,,0.00,WeatherDisplay:10.37,2013-06-30 13:15:00,
2013-06-30 08:20:00,66.1,56.4,30.01,North,352,5.0,8.0,71,0.00,CLR,,0.00,WeatherDisplay:10.37,2013-06-30 13:20:00,
2013-06-30 08:25:00,66.5,57.1,30.01,North,354,5.0,7.0,72,0.00,CLR,,0.00,WeatherDisplay:10.37,2013-06-30 13:25:00,
2013-06-30 08:30:00,66.6,56.5,30.01,NNW,348,6.0,9.0,70,0.00,CLR,,0.00,WeatherDisplay:10.37,2013-06-30 13:30:00,
2013-06-30 08:40:00,67.3,57.2,30.00,North,0,5.0,8.0,70,0.00,CLR,,0.00,WeatherDisplay:10.37,2013-06-30 13:40:00,
2013-06-30 08:50:00,67.9,57.3,30.01,North,6,3.0,8.0,69,0.00,CLR,,0.00,WeatherDisplay:10.37,2013-06-30 13:50:00,
2013-06-30 08:55:00,68.0,57.8,30.01,North,352,6.0,8.0,70,0.00,CLR,,0.00,WeatherDisplay:10.37,2013-06-30 13:55:00,
2013-06-30 09:00:00,68.4,58.6,30.01,North,354,3.0,8.0,71,0.00,CLR,,0.00,WeatherDisplay:10.37,2013-06-30 14:00:00,
2013-06-30 09:10:00,68.7,58.1,30.01,North,357,3.0,9.0,69,0.00,CLR,,0.00,WeatherDisplay:10.37,2013-06-30 14:10:00,
2013-06-30 09:15:00,69.0,58.0,30.01,North,352,5.0,6.0,68,0.00,CLR,,0.00,WeatherDisplay:10.37,2013-06-30 14:15:00,
2013-06-30 09:20:00,69.4,58.8,30.01,North,0,3.0,7.0,69,0.00,CLR,,0.00,WeatherDisplay:10.37,2013-06-30 14:20:00,
2013-06-30 09:25:00,69.3,57.9,30.01,North,8,6.0,9.0,67,0.00,CLR,,0.00,WeatherDisplay:10.37,2013-06-30 14:25:00,
2013-06-30 09:30:00,69.1,57.7,30.01,North,359,6.0,10.0,67,0.00,CLR,,0.00,WeatherDisplay:10.37,2013-06-30 14:30:00,
2013-06-30 09:40:00,69.5,58.1,30.02,North,357,5.0,7.0,67,0.00,CLR,,0.00,WeatherDisplay:10.37,2013-06-30 14:40:00,
2013-06-30 10:00:00,70.4,57.2,30.02,NNW,340,6.0,10.0,63,0.00,CLR,,0.00,WeatherDisplay:10.37,2013-06-30 15:00:00,
2013-06-30 10:10:00,70.5,57.3,30.02,NNW,334,6.0,9.0,63,0.00,CLR,,0.00,WeatherDisplay:10.37,2013-06-30 15:10:00,
2013-06-30 10:15:00,70.5,57.7,30.02,NNW,340,5.0,8.0,64,0.00,CLR,,0.00,WeatherDisplay:10.37,2013-06-30 15:15:00,
2013-06-30 10:20:00,71.2,57.5,30.02,NNW,344,7.0,9.0,62,0.00,CLR,,0.00,WeatherDisplay:10.37,2013-06-30 15:20:00,
2013-06-30 10:30:00,71.2,57.5,30.02,NNW,344,6.0,9.0,62,0.00,CLR,,0.00,WeatherDisplay:10.37,2013-06-30 15:30:00,
2013-06-30 10:40:00,71.1,57.9,30.02,NNW,338,6.0,8.0,63,0.00,CLR,,0.00,WeatherDisplay:10.37,2013-06-30 15:40:00,
2013-06-30 10:45:00,71.6,56.5,30.02,NNW,343,7.0,12.0,59,0.00,CLR,,0.00,WeatherDisplay:10.37,2013-06-30 15:45:00,
2013-06-30 10:50:00,71.7,56.6,30.01,North,356,8.0,12.0,59,0.00,CLR,,0.00,WeatherDisplay:10.37,2013-06-30 15:50:00,
2013-06-30 10:55:00,71.9,57.3,30.02,North,356,5.0,10.0,60,0.00,CLR,,0.00,WeatherDisplay:10.37,2013-06-30 15:55:00,
2013-06-30 11:00:00,71.9,55.8,30.01,NNW,344,9.0,12.0,57,0.00,CLR,,0.00,WeatherDisplay:10.37,2013-06-30 16:00:00,
2013-06-30 11:10:00,71.8,54.8,30.01,NNW,334,8.0,11.0,55,0.00,CLR,,0.00,WeatherDisplay:10.37,2013-06-30 16:10:00,
2013-06-30 11:20:00,72.0,55.5,30.02,North,351,7.0,12.0,56,0.00,CLR,,0.00,WeatherDisplay:10.37,2013-06-30 16:20:00,
2013-06-30 11:25:00,72.1,54.5,30.02,NNW,340,9.0,14.0,54,0.00,CLR,,0.00,WeatherDisplay:10.37,2013-06-30 16:25:00,
2013-06-30 11:30:00,72.0,55.0,30.02,NNW,343,8.0,15.0,55,0.00,CLR,,0.00,WeatherDisplay:10.37,2013-06-30 16:30:00,
2013-06-30 11:40:00,72.7,55.1,30.02,NNE,29,8.0,15.0,54,0.00,CLR,,0.00,WeatherDisplay:10.37,2013-06-30 16:40:00,
2013-06-30 11:50:00,72.6,55.0,30.02,NNE,22,7.0,12.0,54,0.00,CLR,,0.00,WeatherDisplay:10.37,2013-06-30 16:50:00,
2013-06-30 12:00:00,73.3,55.1,30.02,North,358,8.0,12.0,53,0.00,CLR,,0.00,WeatherDisplay:10.37,2013-06-30 17:00:00,
2013-06-30 12:10:00,73.3,55.6,30.02,North,4,6.0,13.0,54,0.00,CLR,,0.00,WeatherDisplay:10.37,2013-06-30 17:10:00,
2013-06-30 12:15:00,73.3,55.7,30.02,NNE,12,7.0,12.0,54,0.00,CLR,,0.00,WeatherDisplay:10.37,2013-06-30 17:15:00,
2013-06-30 12:20:00,73.3,54.7,30.02,North,0,10.0,12.0,52,0.00,CLR,,0.00,WeatherDisplay:10.37,2013-06-30 17:20:00,
2013-06-30 12:30:00,73.1,55.0,30.02,NNE,15,6.0,12.0,53,0.00,CLR,,0.00,WeatherDisplay:10.37,2013-06-30 17:30:00,
2013-06-30 12:40:00,73.8,55.6,30.02,NNE,19,7.0,17.0,53,0.00,CLR,,0.00,WeatherDisplay:10.37,2013-06-30 17:40:00,
2013-06-30 12:50:00,73.9,54.1,30.02,North,6,6.0,15.0,50,0.00,CLR,,0.00,WeatherDisplay:10.37,2013-06-30 17:50:00,
2013-06-30 13:00:00,73.5,53.8,30.02,North,349,7.0,10.0,50,0.00,CLR,,0.00,WeatherDisplay:10.37,2013-06-30 18:00:00,
2013-06-30 13:10:00,73.6,54.3,30.02,North,351,7.0,12.0,51,0.00,BKN,,0.00,WeatherDisplay:10.37,2013-06-30 18:10:00,
2013-06-30 13:15:00,74.2,54.9,30.02,North,349,7.0,10.0,51,0.00,BKN,,0.00,WeatherDisplay:10.37,2013-06-30 18:15:00,
2013-06-30 13:20:00,73.5,53.2,30.01,NNW,331,8.0,12.0,49,0.00,BKN,,0.00,WeatherDisplay:10.37,2013-06-30 18:20:00,
2013-06-30 13:25:00,74.0,53.6,30.02,NNW,334,8.0,12.0,49,0.00,BKN,,0.00,WeatherDisplay:10.37,2013-06-30 18:25:00,
2013-06-30 13:30:00,72.5,52.2,30.02,NNW,347,9.0,15.0,49,0.00,BKN,,0.00,WeatherDisplay:10.37,2013-06-30 18:30:00,
2013-06-30 13:40:00,74.2,53.8,30.01,North,9,7.0,12.0,49,0.00,BKN,,0.00,WeatherDisplay:10.37,2013-06-30 18:40:00,
2013-06-30 13:45:00,74.7,54.9,30.01,NNE,13,8.0,12.0,50,0.00,BKN,,0.00,WeatherDisplay:10.37,2013-06-30 18:45:00,
2013-06-30 13:50:00,74.2,52.7,30.01,North,8,8.0,12.0,47,0.00,BKN,,0.00,WeatherDisplay:10.37,2013-06-30 18:50:00,
2013-06-30 14:00:00,74.5,55.1,30.01,North,1,8.0,12.0,51,0.00,BKN,,0.00,WeatherDisplay:10.37,2013-06-30 19:00:00,
2013-06-30 14:10:00,74.8,54.9,30.01,NNW,347,6.0,10.0,50,0.00,SCT,,0.00,WeatherDisplay:10.37,2013-06-30 19:10:00,
2013-06-30 14:15:00,74.7,53.7,30.01,NNW,344,8.0,10.0,48,0.00,SCT,,0.00,WeatherDisplay:10.37,2013-06-30 19:15:00,
2013-06-30 14:20:00,74.5,54.7,30.01,NNW,340,7.0,10.0,50,0.00,SCT,,0.00,WeatherDisplay:10.37,2013-06-30 19:20:00,
2013-06-30 14:30:00,74.8,54.3,30.01,North,7,6.0,12.0,49,0.00,SCT,,0.00,WeatherDisplay:10.37,2013-06-30 19:30:00,
2013-06-30 14:40:00,75.2,54.2,30.01,North,1,6.0,13.0,48,0.00,SCT,,0.00,WeatherDisplay:10.37,2013-06-30 19:40:00,
2013-06-30 14:50:00,75.1,53.5,30.01,North,2,7.0,10.0,47,0.00,SCT,,0.00,WeatherDisplay:10.37,2013-06-30 19:50:00,
2013-06-30 14:55:00,75.4,54.9,30.01,North,356,5.0,8.0,49,0.00,SCT,,0.00,WeatherDisplay:10.37,2013-06-30 19:55:00,
2013-06-30 15:00:00,75.8,56.4,30.01,North,352,6.0,10.0,51,0.00,SCT,,0.00,WeatherDisplay:10.37,2013-06-30 20:00:00,
2013-06-30 15:10:00,75.4,53.2,30.00,North,1,7.0,10.0,46,0.00,SCT,,0.00,WeatherDisplay:10.37,2013-06-30 20:10:00,
2013-06-30 15:15:00,75.5,55.0,30.00,NNE,16,7.0,14.0,49,0.00,SCT,,0.00,WeatherDisplay:10.37,2013-06-30 20:15:00,
2013-06-30 15:25:00,76.5,55.9,30.00,North,3,8.0,12.0,49,0.00,SCT,,0.00,WeatherDisplay:10.37,2013-06-30 20:25:00,
2013-06-30 15:30:00,76.1,55.0,30.00,North,358,5.0,8.0,48,0.00,SCT,,0.00,WeatherDisplay:10.37,2013-06-30 20:30:00,
2013-06-30 15:35:00,75.7,54.6,30.00,North,2,6.0,9.0,48,0.00,SCT,,0.00,WeatherDisplay:10.37,2013-06-30 20:35:00,
2013-06-30 15:40:00,75.2,55.3,30.00,North,8,5.0,9.0,50,0.00,SCT,,0.00,WeatherDisplay:10.37,2013-06-30 20:40:00,
2013-06-30 15:45:00,76.0,54.9,30.00,North,356,8.0,12.0,48,0.00,SCT,,0.00,WeatherDisplay:10.37,2013-06-30 20:45:00,
2013-06-30 15:50:00,76.4,55.9,30.01,North,8,6.0,15.0,49,0.00,SCT,,0.00,WeatherDisplay:10.37,2013-06-30 20:50:00,
2013-06-30 16:00:00,76.4,55.9,30.01,North,351,7.0,12.0,49,0.00,SCT,,0.00,WeatherDisplay:10.37,2013-06-30 21:00:00,
2013-06-30 16:10:00,75.8,55.2,30.01,North,11,6.0,9.0,49,0.00,BKN,,0.00,WeatherDisplay:10.37,2013-06-30 21:10:00,
2013-06-30 16:15:00,76.1,55.0,30.01,North,11,7.0,10.0,48,0.00,BKN,,0.00,WeatherDisplay:10.37,2013-06-30 21:15:00,
2013-06-30 16:20:00,76.3,54.6,30.01,North,1,7.0,12.0,47,0.00,BKN,,0.00,WeatherDisplay:10.37,2013-06-30 21:20:00,
2013-06-30 16:30:00,75.4,54.3,30.01,North,9,3.0,9.0,48,0.00,BKN,,0.00,WeatherDisplay:10.37,2013-06-30 21:30:00,
2013-06-30 16:40:00,74.3,54.4,30.01,NNE,12,5.0,9.0,50,0.00,BKN,,0.00,WeatherDisplay:10.37,2013-06-30 21:40:00,
2013-06-30 16:45:00,75.3,54.8,30.00,North,5,8.0,14.0,49,0.00,BKN,,0.00,WeatherDisplay:10.37,2013-06-30 21:45:00,
2013-06-30 16:50:00,76.3,55.8,30.00,North,358,7.0,10.0,49,0.00,BKN,,0.00,WeatherDisplay:10.37,2013-06-30 21:50:00,
2013-06-30 16:55:00,76.6,56.0,30.00,North,357,8.0,13.0,49,0.00,BKN,,0.00,WeatherDisplay:10.37,2013-06-30 21:55:00,
2013-06-30 17:00:00,75.3,54.3,30.00,NNW,344,8.0,13.0,48,0.00,BKN,,0.00,WeatherDisplay:10.37,2013-06-30 22:00:00,
2013-06-30 17:10:00,75.9,56.5,30.00,North,355,5.0,7.0,51,0.00,FEW,,0.00,WeatherDisplay:10.37,2013-06-30 22:10:00,
2013-06-30 17:15:00,76.3,55.2,30.00,North,349,7.0,10.0,48,0.00,FEW,,0.00,WeatherDisplay:10.37,2013-06-30 22:15:00,
2013-06-30 17:20:00,75.9,55.4,30.00,NNW,346,7.0,10.0,49,0.00,FEW,,0.00,WeatherDisplay:10.37,2013-06-30 22:20:00,
2013-06-30 17:30:00,76.4,55.8,30.01,North,5,6.0,10.0,49,0.00,FEW,,0.00,WeatherDisplay:10.37,2013-06-30 22:30:00,
2013-06-30 17:40:00,76.2,55.0,30.00,NE,35,6.0,14.0,48,0.00,FEW,,0.00,WeatherDisplay:10.37,2013-06-30 22:40:00,
2013-06-30 17:45:00,76.1,55.0,30.00,NNE,29,7.0,14.0,48,0.00,FEW,,0.00,WeatherDisplay:10.37,2013-06-30 22:45:00,
2013-06-30 17:50:00,75.5,54.4,30.00,NNE,15,6.0,17.0,48,0.00,FEW,,0.00,WeatherDisplay:10.37,2013-06-30 22:50:00,
2013-06-30 18:00:00,74.9,55.0,30.00,NNE,21,6.0,9.0,50,0.00,FEW,,0.00,WeatherDisplay:10.37,2013-06-30 23:00:00,
2013-06-30 18:10:00,75.9,57.0,30.00,North,11,3.0,8.0,52,0.00,BKN,,0.00,WeatherDisplay:10.37,2013-06-30 23:10:00,
2013-06-30 18:15:00,75.9,56.4,30.00,NNE,14,3.0,8.0,51,0.00,BKN,,0.00,WeatherDisplay:10.37,2013-06-30 23:15:00,
2013-06-30 18:20:00,75.8,55.8,30.00,NNE,20,7.0,12.0,50,0.00,BKN,,0.00,WeatherDisplay:10.37,2013-06-30 23:20:00,
2013-06-30 18:25:00,75.7,55.7,30.00,NNE,20,6.0,10.0,50,0.00,BKN,,0.00,WeatherDisplay:10.37,2013-06-30 23:25:00,
2013-06-30 18:30:00,75.6,55.1,30.00,NNE,15,6.0,10.0,49,0.00,BKN,,0.00,WeatherDisplay:10.37,2013-06-30 23:30:00,
2013-06-30 18:40:00,75.6,55.6,30.00,NNE,15,6.0,8.0,50,0.00,BKN,,0.00,WeatherDisplay:10.37,2013-06-30 23:40:00,
2013-06-30 18:45:00,75.5,56.1,30.01,NNE,25,5.0,9.0,51,0.00,BKN,,0.00,WeatherDisplay:10.37,2013-06-30 23:45:00,
2013-06-30 18:50:00,75.5,55.5,30.01,NNE,30,5.0,8.0,50,0.00,BKN,,0.00,WeatherDisplay:10.37,2013-06-30 23:50:00,
2013-06-30 18:55:00,75.4,55.4,30.00,NNE,19,5.0,8.0,50,0.00,BKN,,0.00,WeatherDisplay:10.37,2013-06-30 23:55:00,
2013-06-30 19:00:00,75.3,54.8,30.01,NNE,32,8.0,16.0,49,0.00,BKN,,0.00,WeatherDisplay:10.37,2013-07-01 00:00:00,
2013-06-30 19:10:00,74.6,55.2,30.01,NNE,28,5.0,12.0,51,0.00,FEW,,0.00,WeatherDisplay:10.37,2013-07-01 00:10:00,
2013-06-30 19:15:00,73.9,54.6,30.01,NNE,27,3.0,5.0,51,0.00,FEW,,0.00,WeatherDisplay:10.37,2013-07-01 00:15:00,
2013-06-30 19:20:00,73.5,55.3,30.01,NNE,33,3.0,6.0,53,0.00,FEW,,0.00,WeatherDisplay:10.37,2013-07-01 00:20:00,
2013-06-30 19:25:00,73.2,55.0,30.01,NNE,27,3.0,6.0,53,0.00,FEW,,0.00,WeatherDisplay:10.37,2013-07-01 00:25:00,
2013-06-30 19:30:00,72.9,55.2,30.01,NNE,22,2.0,5.0,54,0.00,FEW,,0.00,WeatherDisplay:10.37,2013-07-01 00:30:00,
2013-06-30 19:40:00,72.2,56.1,30.01,NNE,19,2.0,3.0,57,0.00,FEW,,0.00,WeatherDisplay:10.37,2013-07-01 00:40:00,
2013-06-30 19:45:00,72.1,56.5,30.01,North,4,2.0,5.0,58,0.00,FEW,,0.00,WeatherDisplay:10.37,2013-07-01 00:45:00,
2013-06-30 19:50:00,72.2,56.6,30.01,NNW,346,2.0,4.0,58,0.00,FEW,,0.00,WeatherDisplay:10.37,2013-07-01 00:50:00,
2013-06-30 20:00:00,72.3,56.2,30.02,North,356,3.0,5.0,57,0.00,FEW,,0.00,WeatherDisplay:10.37,2013-07-01 01:00:00,
2013-06-30 20:05:00,72.2,56.2,30.01,North,356,2.0,4.0,57,0.00,SCT,,0.00,WeatherDisplay:10.37,2013-07-01 01:05:00,
2013-06-30 20:15:00,71.6,56.5,30.02,North,355,2.0,3.0,59,0.00,SCT,,0.00,WeatherDisplay:10.37,2013-07-01 01:15:00,
2013-06-30 20:25:00,71.1,56.5,30.02,North,355,0.0,2.0,60,0.00,SCT,,0.00,WeatherDisplay:10.37,2013-07-01 01:25:00,
2013-06-30 20:30:00,70.9,56.3,30.02,North,355,1.0,2.0,60,0.00,SCT,,0.00,WeatherDisplay:10.37,2013-07-01 01:30:00,
2013-06-30 20:40:00,70.6,56.5,30.03,North,355,1.0,2.0,61,0.00,SCT,,0.00,WeatherDisplay:10.37,2013-07-01 01:40:00,
2013-06-30 20:45:00,70.2,56.1,30.02,North,355,0.0,2.0,61,0.00,SCT,,0.00,WeatherDisplay:10.37,2013-07-01 01:45:00,
2013-06-30 20:50:00,69.9,56.3,30.02,North,355,0.0,1.0,62,0.00,SCT,,0.00,WeatherDisplay:10.37,2013-07-01 01:50:00,
2013-06-30 20:55:00,69.6,56.5,30.02,North,355,0.0,2.0,63,0.00,SCT,,0.00,WeatherDisplay:10.37,2013-07-01 01:55:00,
2013-06-30 21:00:00,69.5,56.3,30.03,North,355,0.0,2.0,63,0.00,SCT,,0.00,WeatherDisplay:10.37,2013-07-01 02:00:00,
2013-06-30 21:10:00,69.1,56.0,30.03,North,355,1.0,2.0,63,0.00,FEW,,0.00,WeatherDisplay:10.37,2013-07-01 02:10:00,
2013-06-30 21:20:00,68.8,55.6,30.03,North,355,1.0,2.0,63,0.00,FEW,,0.00,WeatherDisplay:10.37,2013-07-01 02:20:00,
2013-06-30 21:30:00,68.4,55.7,30.04,North,355,0.0,1.0,64,0.00,FEW,,0.00,WeatherDisplay:10.37,2013-07-01 02:30:00,
2013-06-30 21:40:00,68.3,55.7,30.04,North,355,1.0,2.0,64,0.00,FEW,,0.00,WeatherDisplay:10.37,2013-07-01 02:40:00,
2013-06-30 21:45:00,68.3,55.6,30.04,North,355,1.0,2.0,64,0.00,FEW,,0.00,WeatherDisplay:10.37,2013-07-01 02:45:00,
2013-06-30 21:50:00,68.2,55.6,30.04,North,355,1.0,3.0,64,0.00,FEW,,0.00,WeatherDisplay:10.37,2013-07-01 02:50:00,
2013-06-30 21:55:00,68.0,55.3,30.05,North,355,0.0,2.0,64,0.00,FEW,,0.00,WeatherDisplay:10.37,2013-07-01 02:55:00,
2013-06-30 22:00:00,67.6,55.4,30.05,North,355,0.0,2.0,65,0.00,FEW,,0.00,WeatherDisplay:10.37,2013-07-01 03:00:00,
2013-06-30 22:10:00,67.1,55.4,30.05,North,355,0.0,1.0,66,0.00,CLR,,0.00,WeatherDisplay:10.37,2013-07-01 03:10:00,
2013-06-30 22:15:00,67.0,55.2,30.06,North,355,0.0,0.0,66,0.00,CLR,,0.00,WeatherDisplay:10.37,2013-07-01 03:15:00,
2013-06-30 22:20:00,66.8,55.0,30.06,North,355,0.0,1.0,66,0.00,CLR,,0.00,WeatherDisplay:10.37,2013-07-01 03:20:00,
2013-06-30 22:30:00,66.7,54.9,30.06,North,355,1.0,2.0,66,0.00,CLR,,0.00,WeatherDisplay:10.37,2013-07-01 03:30:00,
2013-06-30 22:40:00,67.0,54.8,30.06,North,355,2.0,3.0,65,0.00,CLR,,0.00,WeatherDisplay:10.37,2013-07-01 03:40:00,
2013-06-30 22:45:00,67.0,54.8,30.06,North,355,1.0,2.0,65,0.00,CLR,,0.00,WeatherDisplay:10.37,2013-07-01 03:45:00,
2013-06-30 22:50:00,66.7,54.9,30.07,North,355,0.0,2.0,66,0.00,CLR,,0.00,WeatherDisplay:10.37,2013-07-01 03:50:00,
2013-06-30 23:00:00,66.2,54.9,30.06,North,355,1.0,2.0,67,0.00,CLR,,0.00,WeatherDisplay:10.37,2013-07-01 04:00:00,
2013-06-30 23:05:00,66.1,54.8,30.06,North,355,1.0,2.0,67,0.00,CLR,,0.00,WeatherDisplay:10.37,2013-07-01 04:05:00,
2013-06-30 23:10:00,66.0,54.7,30.06,North,355,1.0,2.0,67,0.00,CLR,,0.00,WeatherDisplay:10.37,2013-07-01 04:10:00,
2013-06-30 23:15:00,65.7,54.8,30.06,North,355,1.0,2.0,68,0.00,CLR,,0.00,WeatherDisplay:10.37,2013-07-01 04:15:00,
2013-06-30 23:20:00,65.5,55.0,30.06,North,355,1.0,2.0,69,0.00,CLR,,0.00,WeatherDisplay:10.37,2013-07-01 04:20:00,
2013-06-30 23:25:00,65.4,54.9,30.07,North,355,2.0,3.0,69,0.00,CLR,,0.00,WeatherDisplay:10.37,2013-07-01 04:25:00,
2013-06-30 23:30:00,65.2,54.8,30.07,North,355,2.0,3.0,69,0.00,CLR,,0.00,WeatherDisplay:10.37,2013-07-01 04:30:00,
2013-06-30 23:35:00,65.1,54.7,30.07,North,355,2.0,3.0,69,0.00,CLR,,0.00,WeatherDisplay:10.37,2013-07-01 04:35:00,
2013-06-30 23:40:00,64.9,54.5,30.07,North,355,1.0,3.0,69,0.00,CLR,,0.00,WeatherDisplay:10.37,2013-07-01 04:40:00,
2013-06-30 23:45:00,64.5,54.9,30.07,North,355,1.0,2.0,71,0.00,CLR,,0.00,WeatherDisplay:10.37,2013-07-01 04:45:00,
2013-06-30 23:50:00,64.0,54.4,30.07,North,355,0.0,2.0,71,0.00,CLR,,0.00,WeatherDisplay:10.37,2013-07-01 04:50:00,